createdAt,value
2023-04-12T00:00:11.610Z,100372.56
2023-04-12T00:02:39.574Z,100371.31
2023-04-12T00:05:09.459Z,100365.53
2023-04-12T00:07:36.137Z,100346.06
2023-04-12T00:10:03.196Z,100348.31
2023-04-12T00:12:29.591Z,100342.72
2023-04-12T00:14:55.995Z,100328.69
2023-04-12T00:17:22.465Z,100313.34
2023-04-12T00:19:50.047Z,100312.50
2023-04-12T00:22:16.739Z,100310.66
2023-04-12T00:24:43.604Z,100308.38
2023-04-12T00:27:10.468Z,100296.31
2023-04-12T00:29:36.964Z,100276.88
2023-04-12T00:32:05.417Z,100278.94
2023-04-12T00:34:31.977Z,100274.41
2023-04-12T00:36:58.414Z,100253.28
2023-04-12T00:39:24.852Z,100246.88
2023-04-12T00:41:51.313Z,100236.31
2023-04-12T00:44:18.267Z,100229.50
2023-04-12T00:46:47.775Z,100226.81
2023-04-12T00:49:15.389Z,100218.13
2023-04-12T00:51:43.166Z,100224.75
2023-04-12T00:54:11.138Z,100205.31
2023-04-12T00:56:40.227Z,100197.06
2023-04-12T00:59:07.654Z,100180.53
2023-04-12T01:01:34.557Z,100183.59
2023-04-12T01:04:04.567Z,100179.06
2023-04-12T01:06:50.634Z,100174.47
2023-04-12T01:09:16.949Z,100173.47
2023-04-12T01:12:20.485Z,100157.56
2023-04-12T01:14:58.145Z,100150.50
2023-04-12T01:17:31.092Z,100142.69
2023-04-12T01:20:17.033Z,100128.00
2023-04-12T01:22:59.400Z,100120.16
2023-04-12T01:25:58.573Z,100113.13
2023-04-12T01:28:33.744Z,100114.56
2023-04-12T01:31:03.246Z,100095.13
2023-04-12T01:33:31.602Z,100089.56
2023-04-12T01:36:00.899Z,100085.84
2023-04-12T01:38:28.770Z,100074.91
2023-04-12T01:40:55.740Z,100064.97
2023-04-12T01:43:22.446Z,100059.41
2023-04-12T01:45:48.927Z,100056.94
2023-04-12T01:48:15.404Z,100051.97
2023-04-12T01:51:06.697Z,100052.56
2023-04-12T01:53:37.709Z,100035.00
2023-04-12T01:56:10.270Z,100034.59
2023-04-12T01:58:39.352Z,100020.53
2023-04-12T02:01:08.049Z,100029.00
2023-04-12T02:03:42.825Z,100001.16
2023-04-12T02:06:10.482Z,99992.25
2023-04-12T02:08:37.596Z,99992.88
2023-04-12T02:11:11.483Z,100003.63
2023-04-12T02:13:38.209Z,99992.47
2023-04-12T02:16:05.309Z,100001.16
2023-04-12T02:18:35.830Z,99983.59
2023-04-12T02:21:02.352Z,99973.47
2023-04-12T02:23:28.839Z,99972.63
2023-04-12T02:25:55.356Z,99967.47
2023-04-12T02:28:23.118Z,99960.66
2023-04-12T02:30:53.908Z,99939.78
2023-04-12T02:33:25.262Z,99937.31
2023-04-12T02:35:53.099Z,99935.47
2023-04-12T02:38:20.579Z,99933.19
2023-04-12T02:40:47.902Z,99921.41
2023-04-12T02:43:17.232Z,99916.84
2023-04-12T02:45:48.089Z,99900.56
2023-04-12T02:48:14.907Z,99892.09
2023-04-12T02:50:42.254Z,99889.00
2023-04-12T02:53:15.995Z,99886.31
2023-04-12T02:55:45.952Z,99881.34
2023-04-12T02:58:13.519Z,99877.44
2023-04-12T03:00:46.579Z,99878.66
2023-04-12T03:03:17.847Z,99876.81
2023-04-12T03:05:47.297Z,99859.06
2023-04-12T03:08:16.024Z,99857.19
2023-04-12T03:10:51.047Z,99854.72
2023-04-12T03:13:17.585Z,99855.97
2023-04-12T03:15:48.110Z,99851.63
2023-04-12T03:18:14.635Z,99846.91
2023-04-12T03:20:47.796Z,99823.16
2023-04-12T03:23:15.194Z,99821.69
2023-04-12T03:25:49.027Z,99833.47
2023-04-12T03:28:36.005Z,99824.78
2023-04-12T03:31:05.164Z,99816.53
2023-04-12T03:33:41.505Z,99806.03
2023-04-12T03:36:17.685Z,99808.09
2023-04-12T03:38:48.293Z,99809.13
2023-04-12T03:41:15.577Z,99792.19
2023-04-12T03:43:42.595Z,99791.78
2023-04-12T03:46:17.279Z,99781.47
2023-04-12T03:48:49.350Z,99783.09
2023-04-12T03:51:16.262Z,99771.97
2023-04-12T03:53:44.544Z,99771.75
2023-04-12T03:56:14.752Z,99758.75
2023-04-12T03:58:44.358Z,99750.69
2023-04-12T04:01:13.683Z,99753.78
2023-04-12T04:03:41.493Z,99751.53
2023-04-12T04:06:19.108Z,99760.22
2023-04-12T04:08:45.891Z,99754.41
2023-04-12T04:11:13.797Z,99761.66
2023-04-12T04:13:43.966Z,99754.00
2023-04-12T04:16:16.521Z,99736.88
2023-04-12T04:18:43.250Z,99743.28
2023-04-12T04:21:14.151Z,99730.66
2023-04-12T04:23:44.711Z,99732.09
2023-04-12T04:26:11.687Z,99733.34
2023-04-12T04:28:55.978Z,99726.75
2023-04-12T04:31:34.301Z,99729.22
2023-04-12T04:34:06.018Z,99726.94
2023-04-12T04:36:37.712Z,99734.78
2023-04-12T04:39:07.639Z,99735.63
2023-04-12T04:41:39.452Z,99721.59
2023-04-12T04:44:11.463Z,99726.75
2023-04-12T04:46:44.424Z,99725.31
2023-04-12T04:49:10.967Z,99724.25
2023-04-12T04:51:37.392Z,99712.47
2023-04-12T04:54:04.327Z,99722.56
2023-04-12T04:56:32.655Z,99719.91
2023-04-12T04:58:59.277Z,99713.75
2023-04-12T05:01:28.396Z,99712.72
2023-04-12T05:03:57.004Z,99720.75
2023-04-12T05:06:27.247Z,99727.56
2023-04-12T05:08:54.358Z,99726.72
2023-04-12T05:11:22.189Z,99718.03
2023-04-12T05:13:49.048Z,99728.34
2023-04-12T05:16:16.947Z,99718.03
2023-04-12T05:18:44.225Z,99719.88
2023-04-12T05:21:10.732Z,99727.31
2023-04-12T05:23:42.801Z,99725.25
2023-04-12T05:26:11.489Z,99731.84
2023-04-12T05:28:39.219Z,99719.47
2023-04-12T05:31:06.994Z,99725.88
2023-04-12T05:33:37.410Z,99715.31
2023-04-12T05:36:04.790Z,99715.72
2023-04-12T05:38:31.656Z,99715.50
2023-04-12T05:41:06.854Z,99708.91
2023-04-12T05:43:33.806Z,99720.63
2023-04-12T05:46:00.598Z,99704.09
2023-04-12T05:48:27.178Z,99712.75
2023-04-12T05:50:56.314Z,99708.25
2023-04-12T05:53:23.281Z,99697.91
2023-04-12T05:55:51.580Z,99698.13
2023-04-12T05:58:18.878Z,99706.78
2023-04-12T06:00:46.729Z,99705.72
2023-04-12T06:03:13.309Z,99704.69
2023-04-12T06:05:40.270Z,99717.88
2023-04-12T06:08:08.429Z,99723.88
2023-04-12T06:10:36.359Z,99713.53
2023-04-12T06:13:03.673Z,99712.72
2023-04-12T06:15:32.032Z,99705.25
2023-04-12T06:17:59.724Z,99713.53
2023-04-12T06:20:26.435Z,99719.31
2023-04-12T06:22:53.246Z,99717.84
2023-04-12T06:25:21.278Z,99720.06
2023-04-12T06:27:47.994Z,99713.88
2023-04-12T06:30:16.438Z,99706.06
2023-04-12T06:32:43.595Z,99698.59
2023-04-12T06:35:10.783Z,99692.59
2023-04-12T06:37:37.863Z,99687.22
2023-04-12T06:40:04.864Z,99689.91
2023-04-12T06:42:31.338Z,99695.66
2023-04-12T06:44:57.806Z,99697.31
2023-04-12T06:47:25.134Z,99703.91
2023-04-12T06:49:56.184Z,99697.06
2023-04-12T06:52:26.612Z,99698.47
2023-04-12T06:54:54.167Z,99706.34
2023-04-12T06:57:20.755Z,99702.38
2023-04-12T06:59:47.198Z,99704.03
2023-04-12T07:02:13.723Z,99705.44
2023-04-12T07:04:40.498Z,99697.22
2023-04-12T07:07:16.338Z,99697.88
2023-04-12T07:09:43.159Z,99700.16
2023-04-12T07:12:09.661Z,99699.94
2023-04-12T07:14:36.382Z,99701.00
2023-04-12T07:17:02.802Z,99703.50
2023-04-12T07:19:31.065Z,99706.38
2023-04-12T07:21:58.106Z,99705.72
2023-04-12T07:24:24.622Z,99704.03
2023-04-12T07:26:54.288Z,99709.34
2023-04-12T07:29:20.757Z,99705.19
2023-04-12T07:31:47.266Z,99709.91
2023-04-12T07:34:13.903Z,99705.00
2023-04-12T07:36:40.532Z,99706.63
2023-04-12T07:39:06.935Z,99703.28
2023-04-12T07:41:33.360Z,99698.69
2023-04-12T07:43:59.778Z,99696.59
2023-04-12T07:46:26.334Z,99691.41
2023-04-12T07:48:52.807Z,99703.78
2023-04-12T07:51:19.447Z,99697.78
2023-04-12T07:53:48.289Z,99697.22
2023-04-12T07:56:15.363Z,99689.91
2023-04-12T07:58:41.737Z,99685.75
2023-04-12T08:01:08.329Z,99679.84
2023-04-12T08:03:34.885Z,99684.13
2023-04-12T08:06:01.320Z,99673.91
2023-04-12T08:08:27.727Z,99675.38
2023-04-12T08:10:54.197Z,99672.69
2023-04-12T08:13:21.201Z,99667.81
2023-04-12T08:15:47.951Z,99668.56
2023-04-12T08:18:15.506Z,99676.31
2023-04-12T08:20:43.985Z,99673.25
2023-04-12T08:23:11.717Z,99670.56
2023-04-12T08:25:38.923Z,99671.25
2023-04-12T08:28:08.076Z,99679.38
2023-04-12T08:30:34.842Z,99676.06
2023-04-12T08:33:01.369Z,99661.91
2023-04-12T08:35:27.785Z,99677.50
2023-04-12T08:37:54.169Z,99669.50
2023-04-12T08:40:21.828Z,99672.78
2023-04-12T08:42:48.494Z,99677.50
2023-04-12T08:45:15.175Z,99680.00
2023-04-12T08:47:43.487Z,99678.03
2023-04-12T08:50:13.935Z,99683.84
2023-04-12T08:52:41.787Z,99674.38
2023-04-12T08:55:10.025Z,99670.28
2023-04-12T08:57:39.677Z,99682.09
2023-04-12T09:00:08.199Z,99675.69
2023-04-12T09:02:38.927Z,99669.91
2023-04-12T09:05:06.866Z,99673.66
2023-04-12T09:07:33.922Z,99683.25
2023-04-12T09:10:00.498Z,99665.38
2023-04-12T09:12:27.225Z,99671.50
2023-04-12T09:15:14.381Z,99664.97
2023-04-12T09:17:42.713Z,99674.41
2023-04-12T09:20:12.083Z,99677.56
2023-04-12T09:22:45.093Z,99665.72
2023-04-12T09:25:15.621Z,99664.66
2023-04-12T09:27:49.439Z,99674.16
2023-04-12T09:30:17.679Z,99671.00
2023-04-12T09:32:44.811Z,99670.66
2023-04-12T09:35:11.597Z,99679.91
2023-04-12T09:37:38.041Z,99683.41
2023-04-12T09:40:09.678Z,99676.94
2023-04-12T09:42:48.993Z,99692.66
2023-04-12T09:45:21.706Z,99689.97
2023-04-12T09:47:48.287Z,99688.06
2023-04-12T09:50:28.694Z,99684.78
2023-04-12T09:53:00.046Z,99686.16
2023-04-12T09:55:28.360Z,99691.38
2023-04-12T09:57:55.928Z,99679.44
2023-04-12T10:00:25.372Z,99675.69
2023-04-12T10:02:53.703Z,99676.03
2023-04-12T10:05:23.090Z,99672.53
2023-04-12T10:07:50.701Z,99667.72
2023-04-12T10:10:18.605Z,99673.66
2023-04-12T10:12:47.035Z,99668.63
2023-04-12T10:15:17.565Z,99669.34
2023-04-12T10:17:54.629Z,99670.88
2023-04-12T10:20:23.320Z,99672.88
2023-04-12T10:22:53.177Z,99679.94
2023-04-12T10:25:25.796Z,99674.66
2023-04-12T10:27:53.153Z,99667.00
2023-04-12T10:30:33.086Z,99661.06
2023-04-12T10:33:02.570Z,99661.47
2023-04-12T10:35:30.471Z,99660.31
2023-04-12T10:38:01.140Z,99657.88
2023-04-12T10:40:28.962Z,99666.75
2023-04-12T10:43:26.611Z,99664.72
2023-04-12T10:45:53.169Z,99667.34
2023-04-12T10:48:37.574Z,99670.38
2023-04-12T10:51:23.356Z,99660.63
2023-04-12T10:53:51.073Z,99663.00
2023-04-12T10:56:34.368Z,99661.19
2023-04-12T10:59:03.519Z,99659.47
2023-04-12T11:02:02.510Z,99656.94
2023-04-12T11:04:29.302Z,99666.34
2023-04-12T11:07:11.544Z,99668.56
2023-04-12T11:09:59.569Z,99671.53
2023-04-12T11:12:29.408Z,99667.75
2023-04-12T11:15:01.204Z,99666.13
2023-04-12T11:17:37.825Z,99674.22
2023-04-12T11:20:05.550Z,99672.28
2023-04-12T11:22:33.314Z,99670.16
2023-04-12T11:25:02.423Z,99661.78
2023-04-12T11:27:30.415Z,99666.25
2023-04-12T11:29:58.900Z,99664.38
2023-04-12T11:32:30.648Z,99661.81
2023-04-12T11:34:58.203Z,99667.34
2023-04-12T11:37:27.669Z,99672.31
2023-04-12T11:39:57.212Z,99670.38
2023-04-12T11:42:24.979Z,99672.28
2023-04-12T11:44:58.958Z,99675.63
2023-04-12T11:47:28.335Z,99677.91
2023-04-12T11:49:56.940Z,99665.59
2023-04-12T11:52:33.429Z,99666.09
2023-04-12T11:55:04.887Z,99670.91
2023-04-12T11:57:32.058Z,99677.22
2023-04-12T12:00:00.176Z,99672.00
2023-04-12T12:02:30.386Z,99666.59
2023-04-12T12:04:58.760Z,99665.16
2023-04-12T12:07:26.065Z,99674.66
2023-04-12T12:09:52.850Z,99672.78
2023-04-12T12:12:19.948Z,99676.03
2023-04-12T12:14:47.501Z,99679.97
2023-04-12T12:17:16.234Z,99682.81
2023-04-12T12:19:44.710Z,99685.66
2023-04-12T12:22:21.523Z,99686.94
2023-04-12T12:24:55.706Z,99686.94
2023-04-12T12:27:25.365Z,99681.81
2023-04-12T12:29:54.945Z,99686.63
2023-04-12T12:32:23.694Z,99697.84
2023-04-12T12:34:58.014Z,99694.91
2023-04-12T12:37:26.629Z,99698.78
2023-04-12T12:40:13.762Z,99710.75
2023-04-12T12:42:51.120Z,99700.91
2023-04-12T12:45:20.277Z,99694.81
2023-04-12T12:48:00.115Z,99689.97
2023-04-12T12:50:28.515Z,99704.63
2023-04-12T12:52:55.857Z,99704.19
2023-04-12T12:55:24.144Z,99706.31
2023-04-12T12:58:07.686Z,99712.19
2023-04-12T13:00:35.542Z,99703.63
2023-04-12T13:03:02.785Z,99705.25
2023-04-12T13:05:29.790Z,99701.38
2023-04-12T13:07:56.261Z,99706.31
2023-04-12T13:10:23.684Z,99698.44
2023-04-12T13:12:50.211Z,99711.03
2023-04-12T13:15:22.950Z,99697.28
2023-04-12T13:17:54.543Z,99691.94
2023-04-12T13:20:22.251Z,99682.06
2023-04-12T13:22:49.482Z,99681.31
2023-04-12T13:25:16.023Z,99683.34
2023-04-12T13:27:42.478Z,99685.19
2023-04-12T13:30:09.305Z,99684.13
2023-04-12T13:32:35.976Z,99688.75
2023-04-12T13:35:03.351Z,99672.09
2023-04-12T13:37:29.914Z,99671.34
2023-04-12T13:39:56.484Z,99677.50
2023-04-12T13:42:23.676Z,99683.59
2023-04-12T13:44:50.268Z,99687.78
2023-04-12T13:47:17.932Z,99691.97
2023-04-12T13:49:44.733Z,99676.75
2023-04-12T13:52:11.378Z,99695.75
2023-04-12T13:54:37.853Z,99697.28
2023-04-12T13:57:04.516Z,99685.97
2023-04-12T13:59:31.224Z,99690.00
2023-04-12T14:01:57.707Z,99692.59
2023-04-12T14:04:27.593Z,99686.50
2023-04-12T14:06:54.020Z,99678.53
2023-04-12T14:09:25.068Z,99683.22
2023-04-12T14:11:52.138Z,99681.81
2023-04-12T14:14:18.585Z,99683.59
2023-04-12T14:16:46.408Z,99680.63
2023-04-12T14:19:12.969Z,99679.00
2023-04-12T14:21:39.487Z,99675.00
2023-04-12T14:24:06.088Z,99654.69
2023-04-12T14:26:32.632Z,99665.84
2023-04-12T14:28:59.617Z,99660.19
2023-04-12T14:31:26.264Z,99667.97
2023-04-12T14:33:53.525Z,99656.81
2023-04-12T14:36:20.075Z,99653.69
2023-04-12T14:38:46.838Z,99651.56
2023-04-12T14:41:14.038Z,99656.03
2023-04-12T14:43:40.784Z,99660.88
2023-04-12T14:46:07.256Z,99664.28
2023-04-12T14:48:33.734Z,99664.03
2023-04-12T14:51:00.180Z,99661.06
2023-04-12T14:53:26.841Z,99653.91
2023-04-12T14:55:53.262Z,99662.09
2023-04-12T14:58:19.786Z,99655.63
2023-04-12T15:00:46.870Z,99664.25
2023-04-12T15:03:15.526Z,99661.03
2023-04-12T15:05:42.155Z,99657.66
2023-04-12T15:08:08.569Z,99659.22
2023-04-12T15:10:35.145Z,99654.84
2023-04-12T15:13:01.563Z,99657.69
2023-04-12T15:15:28.000Z,99668.72
2023-04-12T15:17:54.490Z,99667.78
2023-04-12T15:20:20.984Z,99669.28
2023-04-12T15:22:47.477Z,99674.69
2023-04-12T15:25:14.010Z,99666.69
2023-04-12T15:27:40.689Z,99660.00
2023-04-12T15:30:12.113Z,99660.81
2023-04-12T15:32:41.421Z,99672.78
2023-04-12T15:35:25.207Z,99682.81
2023-04-12T15:37:54.899Z,99677.53
2023-04-12T15:40:22.688Z,99677.34
2023-04-12T15:42:49.430Z,99673.81
2023-04-12T15:45:16.084Z,99680.97
2023-04-12T15:47:42.585Z,99662.31
2023-04-12T15:50:09.590Z,99667.84
2023-04-12T15:52:36.292Z,99680.63
2023-04-12T15:55:05.102Z,99672.19
2023-04-12T15:57:32.377Z,99673.72
2023-04-12T15:59:59.754Z,99677.44
2023-04-12T16:02:26.622Z,99673.59
2023-04-12T16:04:55.887Z,99687.44
2023-04-12T16:07:22.638Z,99669.50
2023-04-12T16:09:49.055Z,99664.56
2023-04-12T16:12:15.564Z,99684.84
2023-04-12T16:14:42.222Z,99675.31
2023-04-12T16:17:08.688Z,99671.81
2023-04-12T16:19:35.174Z,99682.25
2023-04-12T16:22:01.841Z,99676.63
2023-04-12T16:24:28.611Z,99667.97
2023-04-12T16:26:55.430Z,99667.47
2023-04-12T16:29:22.188Z,99667.25
2023-04-12T16:31:48.796Z,99661.41
2023-04-12T16:34:15.876Z,99662.56
2023-04-12T16:36:43.068Z,99648.47
2023-04-12T16:39:11.311Z,99652.59
2023-04-12T16:41:37.837Z,99649.28
2023-04-12T16:44:04.252Z,99658.34
2023-04-12T16:46:32.674Z,99633.47
2023-04-12T16:49:00.375Z,99646.94
2023-04-12T16:51:27.108Z,99645.41
2023-04-12T16:54:03.096Z,99636.66
2023-04-12T16:56:29.636Z,99643.56
2023-04-12T16:58:56.388Z,99635.69
2023-04-12T17:01:22.828Z,99625.00
2023-04-12T17:03:49.516Z,99624.06
2023-04-12T17:06:16.087Z,99620.56
2023-04-12T17:08:44.016Z,99624.44
2023-04-12T17:11:11.353Z,99622.09
2023-04-12T17:13:37.921Z,99613.88
2023-04-12T17:16:04.741Z,99615.41
2023-04-12T17:18:31.802Z,99609.53
2023-04-12T17:20:58.846Z,99608.25
2023-04-12T17:23:25.471Z,99611.06
2023-04-12T17:25:52.403Z,99602.59
2023-04-12T17:28:19.332Z,99603.78
2023-04-12T17:30:46.009Z,99602.03
2023-04-12T17:33:12.795Z,99601.78
2023-04-12T17:35:40.717Z,99597.44
2023-04-12T17:38:07.422Z,99588.44
2023-04-12T17:40:33.878Z,99587.38
2023-04-12T17:43:00.336Z,99587.38
2023-04-12T17:45:26.800Z,99587.13
2023-04-12T17:47:54.467Z,99590.63
2023-04-12T17:50:21.087Z,99602.72
2023-04-12T17:52:47.629Z,99602.03
2023-04-12T17:55:14.376Z,99599.34
2023-04-12T17:57:41.855Z,99593.94
2023-04-12T18:00:12.061Z,99594.19
2023-04-12T18:02:43.451Z,99591.81
2023-04-12T18:05:10.487Z,99605.66
2023-04-12T18:07:37.086Z,99596.38
2023-04-12T18:10:03.643Z,99597.84
2023-04-12T18:12:30.156Z,99600.22
2023-04-12T18:14:56.651Z,99592.94
2023-04-12T18:17:24.453Z,99603.72
2023-04-12T18:19:52.840Z,99601.03
2023-04-12T18:22:19.286Z,99601.03
2023-04-12T18:24:46.016Z,99593.31
2023-04-12T18:27:12.382Z,99582.38
2023-04-12T18:29:38.834Z,99580.75
2023-04-12T18:32:05.288Z,99584.59
2023-04-12T18:34:31.828Z,99593.38
2023-04-12T18:36:59.187Z,99590.19
2023-04-12T18:39:26.030Z,99606.00
2023-04-12T18:41:52.725Z,99600.25
2023-04-12T18:44:19.938Z,99603.31
2023-04-12T18:46:46.563Z,99599.09
2023-04-12T18:49:14.268Z,99600.53
2023-04-12T18:51:42.582Z,99605.31
2023-04-12T18:54:12.904Z,99602.25
2023-04-12T18:56:42.089Z,99602.81
2023-04-12T18:59:08.996Z,99591.91
2023-04-12T19:01:35.722Z,99590.03
2023-04-12T19:04:05.055Z,99593.56
2023-04-12T19:06:32.131Z,99588.25
2023-04-12T19:08:58.553Z,99591.16
2023-04-12T19:11:26.544Z,99584.13
2023-04-12T19:13:53.554Z,99583.97
2023-04-12T19:16:20.012Z,99581.38
2023-04-12T19:18:46.509Z,99578.31
2023-04-12T19:21:12.975Z,99572.31
2023-04-12T19:23:39.744Z,99569.88
2023-04-12T19:26:06.522Z,99569.72
2023-04-12T19:28:32.924Z,99558.16
2023-04-12T19:30:59.692Z,99552.53
2023-04-12T19:33:26.290Z,99549.38
2023-04-12T19:35:55.717Z,99553.44
2023-04-12T19:38:22.209Z,99540.44
2023-04-12T19:40:50.713Z,99540.66
2023-04-12T19:43:18.668Z,99541.69
2023-04-12T19:45:45.257Z,99537.63
2023-04-12T19:48:13.001Z,99536.44
2023-04-12T19:50:39.802Z,99534.56
2023-04-12T19:53:06.256Z,99534.06
2023-04-12T19:55:32.716Z,99534.38
2023-04-12T19:57:59.400Z,99527.97
2023-04-12T20:00:27.195Z,99514.28
2023-04-12T20:02:54.219Z,99516.59
2023-04-12T20:05:22.296Z,99520.59
2023-04-12T20:07:48.823Z,99503.47
2023-04-12T20:10:15.714Z,99514.69
2023-04-12T20:12:42.234Z,99505.41
2023-04-12T20:15:11.672Z,99507.59
2023-04-12T20:17:43.642Z,99501.94
2023-04-12T20:20:12.425Z,99504.53
2023-04-12T20:22:41.570Z,99491.53
2023-04-12T20:25:10.565Z,99483.09
2023-04-12T20:27:37.748Z,99484.19
2023-04-12T20:30:06.126Z,99483.09
2023-04-12T20:32:33.451Z,99473.91
2023-04-12T20:35:00.005Z,99472.31
2023-04-12T20:37:26.771Z,99463.28
2023-04-12T20:39:53.205Z,99448.19
2023-04-12T20:42:21.349Z,99449.38
2023-04-12T20:44:48.368Z,99445.28
2023-04-12T20:47:14.988Z,99444.31
2023-04-12T20:49:42.330Z,99434.53
2023-04-12T20:52:09.517Z,99435.38
2023-04-12T20:54:36.423Z,99418.63
2023-04-12T20:57:06.205Z,99417.00
2023-04-12T20:59:33.313Z,99404.22
2023-04-12T21:02:00.442Z,99397.44
2023-04-12T21:04:27.861Z,99391.63
2023-04-12T21:06:57.671Z,99390.56
2023-04-12T21:09:24.815Z,99393.41
2023-04-12T21:11:52.560Z,99377.72
2023-04-12T21:14:20.529Z,99374.16
2023-04-12T21:16:48.732Z,99360.78
2023-04-12T21:19:18.631Z,99370.03
2023-04-12T21:21:45.848Z,99359.69
2023-04-12T21:24:12.399Z,99350.44
2023-04-12T21:26:39.252Z,99341.94
2023-04-12T21:29:05.664Z,99343.78
2023-04-12T21:31:32.495Z,99338.19
2023-04-12T21:33:59.688Z,99329.63
2023-04-12T21:36:30.240Z,99333.06
2023-04-12T21:38:59.008Z,99323.88
2023-04-12T21:41:25.783Z,99312.88
2023-04-12T21:43:52.704Z,99320.72
2023-04-12T21:46:19.517Z,99313.25
2023-04-12T21:48:46.174Z,99326.09
2023-04-12T21:51:12.607Z,99329.00
2023-04-12T21:53:38.976Z,99319.47
2023-04-12T21:56:05.894Z,99308.78
2023-04-12T21:58:33.287Z,99312.06
2023-04-12T22:00:59.855Z,99319.53
2023-04-12T22:03:27.096Z,99297.81
2023-04-12T22:06:02.936Z,99293.28
2023-04-12T22:08:30.400Z,99299.03
2023-04-12T22:10:56.779Z,99301.56
2023-04-12T22:13:24.665Z,99298.91
2023-04-12T22:15:53.713Z,99310.06
2023-04-12T22:18:20.422Z,99305.19
2023-04-12T22:20:47.834Z,99312.06
2023-04-12T22:23:18.026Z,99303.84
2023-04-12T22:25:45.504Z,99310.03
2023-04-12T22:28:12.193Z,99305.34
2023-04-12T22:30:38.784Z,99302.75
2023-04-12T22:33:05.354Z,99300.78
2023-04-12T22:35:31.785Z,99298.31
2023-04-12T22:37:58.155Z,99298.34
2023-04-12T22:40:24.639Z,99288.28
2023-04-12T22:42:52.238Z,99291.69
2023-04-12T22:45:18.754Z,99284.44
2023-04-12T22:47:45.401Z,99289.41
2023-04-12T22:50:12.797Z,99277.66
2023-04-12T22:52:40.232Z,99272.53
2023-04-12T22:55:08.606Z,99267.56
2023-04-12T22:57:36.160Z,99255.88
2023-04-12T23:00:05.837Z,99264.19
2023-04-12T23:02:33.673Z,99259.44
2023-04-12T23:05:00.691Z,99258.41
2023-04-12T23:07:30.365Z,99243.25
2023-04-12T23:09:57.686Z,99253.19
2023-04-12T23:12:24.628Z,99249.47
2023-04-12T23:14:55.330Z,99240.78
2023-04-12T23:17:21.784Z,99240.34
2023-04-12T23:19:50.236Z,99241.59
2023-04-12T23:22:41.037Z,99231.50
2023-04-12T23:25:47.576Z,99228.19
2023-04-12T23:28:15.930Z,99232.75
2023-04-12T23:30:50.946Z,99224.53
2023-04-12T23:33:20.087Z,99216.28
2023-04-12T23:35:49.236Z,99219.50
2023-04-12T23:38:23.126Z,99210.00
2023-04-12T23:40:54.175Z,99208.16
2023-04-12T23:43:22.631Z,99217.06
2023-04-12T23:45:49.574Z,99209.50
2023-04-12T23:48:18.772Z,99213.19
2023-04-12T23:50:45.915Z,99208.88
2023-04-12T23:53:12.901Z,99203.94
2023-04-12T23:55:39.462Z,99203.88
2023-04-12T23:58:05.952Z,99191.69
